Time;durP1;ratioP1;P1;durP2;ratioP2;P2;SDS_P1;SDS_P2;PMS_P1;PMS_P2;Temp;Humidity;BMP_temperature;BMP_pressure;BME280_temperature;BME280_humidity;BME280_pressure;Samples;Min_cycle;Max_cycle;Signal;HPM_P1;HPM_P2
2023/10/05 00:02:08;;;;;;;0.43;0.43;;;13.30;99.90;;;;;;5035322;28;20155;-65
2023/10/05 00:04:41;;;;;;;0.20;0.15;;;13.30;99.90;;;;;;5079707;28;20049;-67
2023/10/05 00:07:23;;;;;;;1.05;1.00;;;13.30;99.90;;;;;;5038727;28;20418;-67
2023/10/05 00:09:49;;;;;;;0.15;0.15;;;13.40;99.90;;;;;;5048170;28;20073;-67
2023/10/05 00:12:24;;;;;;;0.00;0.00;;;13.40;99.90;;;;;;5064462;28;20036;-66
2023/10/05 00:15:24;;;;;;;0.00;0.00;;;13.30;99.90;;;;;;5048495;28;20495;-66
2023/10/05 00:17:43;;;;;;;0.50;0.50;;;13.40;99.90;;;;;;5057450;28;20044;-66
2023/10/05 00:20:11;;;;;;;1.15;0.55;;;13.30;99.90;;;;;;5039600;28;20056;-66
2023/10/05 00:22:40;;;;;;;5.38;0.30;;;13.40;99.90;;;;;;5037870;28;20098;-66
2023/10/05 00:25:07;;;;;;;0.10;0.10;;;13.40;99.90;;;;;;5066146;28;20037;-66
2023/10/05 00:27:33;;;;;;;0.10;0.10;;;13.40;99.90;;;;;;5038661;28;20500;-65
2023/10/05 00:29:58;;;;;;;0.10;0.10;;;13.40;99.90;;;;;;5040625;28;20093;-67
2023/10/05 00:32:39;;;;;;;0.10;0.10;;;13.40;99.90;;;;;;5043841;28;20059;-67
2023/10/05 00:37:37;;;;;;;0.10;0.10;;;13.40;99.90;;;;;;5062527;28;20155;-66
2023/10/05 00:40:05;;;;;;;0.08;0.08;;;13.40;99.90;;;;;;5062067;28;20103;-66
2023/10/05 00:42:30;;;;;;;0.20;0.20;;;13.40;99.90;;;;;;5049523;28;20061;-66
2023/10/05 00:45:00;;;;;;;0.32;0.32;;;13.40;99.90;;;;;;5056261;28;20036;-68
2023/10/05 00:47:27;;;;;;;2.08;1.20;;;13.50;99.90;;;;;;5047337;28;20112;-67
2023/10/05 00:49:53;;;;;;;0.10;0.10;;;13.50;99.90;;;;;;5047550;28;20040;-66
2023/10/05 00:52:24;;;;;;;0.10;0.10;;;13.50;99.90;;;;;;5045769;28;20037;-67
2023/10/05 00:54:52;;;;;;;0.47;0.45;;;13.50;99.90;;;;;;5078614;28;20479;-66
2023/10/05 00:57:21;;;;;;;0.10;0.10;;;13.60;99.90;;;;;;5048827;28;20076;-66
2023/10/05 00:59:56;;;;;;;0.25;0.22;;;13.60;99.90;;;;;;5051288;28;20110;-66
2023/10/05 01:02:23;;;;;;;1.10;1.00;;;13.60;99.90;;;;;;5049798;28;20045;-67
2023/10/05 01:04:56;;;;;;;0.43;0.35;;;13.60;99.90;;;;;;5052304;28;20048;-67
2023/10/05 01:10:05;;;;;;;3.63;0.68;;;13.60;99.90;;;;;;5074406;28;20560;-67
2023/10/05 01:12:39;;;;;;;1.77;0.45;;;13.70;99.90;;;;;;5050378;28;20036;-67
2023/10/05 01:15:09;;;;;;;0.90;0.37;;;13.70;99.90;;;;;;5066847;28;20483;-66
2023/10/05 01:17:36;;;;;;;0.25;0.22;;;13.70;99.90;;;;;;5048486;28;20037;-67
2023/10/05 01:20:11;;;;;;;1.15;0.20;;;13.60;99.90;;;;;;5047319;28;20128;-66
2023/10/05 01:22:44;;;;;;;0.47;0.20;;;13.70;99.90;;;;;;5048786;28;20036;-67
2023/10/05 01:25:14;;;;;;;0.40;0.40;;;13.60;99.90;;;;;;5050953;28;20532;-67
2023/10/05 01:27:42;;;;;;;1.20;0.60;;;13.60;99.90;;;;;;5067351;28;20399;-67
2023/10/05 01:30:15;;;;;;;0.65;0.65;;;13.60;99.90;;;;;;5053515;28;20063;-67
2023/10/05 01:32:41;;;;;;;0.90;0.30;;;13.50;99.90;;;;;;5045256;28;20047;-68
2023/10/05 01:35:08;;;;;;;0.17;0.17;;;13.50;99.90;;;;;;5048828;28;20043;-67
2023/10/05 01:37:37;;;;;;;0.20;0.20;;;13.50;99.90;;;;;;5049715;28;20115;-66
2023/10/05 01:40:12;;;;;;;2.05;0.30;;;13.50;99.90;;;;;;5058335;28;20131;-66
2023/10/05 01:42:43;;;;;;;0.10;0.10;;;13.40;99.90;;;;;;5069606;28;20041;-68
2023/10/05 01:45:10;;;;;;;0.17;0.17;;;13.40;99.90;;;;;;5046919;28;20036;-66
2023/10/05 01:47:35;;;;;;;0.50;0.50;;;13.40;99.90;;;;;;5049634;28;20052;-67
2023/10/05 01:50:01;;;;;;;0.30;0.25;;;13.40;99.90;;;;;;5040731;28;20066;-67
2023/10/05 01:52:27;;;;;;;0.10;0.10;;;13.40;99.90;;;;;;5067170;28;20420;-67
2023/10/05 01:54:53;;;;;;;0.35;0.35;;;13.40;99.90;;;;;;5048678;28;20558;-66
2023/10/05 01:57:20;;;;;;;0.38;0.38;;;13.40;99.90;;;;;;5045659;28;20044;-67
2023/10/05 01:59:46;;;;;;;0.40;0.40;;;13.40;99.90;;;;;;5044744;28;20071;-66
2023/10/05 02:02:12;;;;;;;0.40;0.40;;;13.40;99.90;;;;;;5040355;28;20036;-67
2023/10/05 02:04:42;;;;;;;0.47;0.35;;;13.40;99.90;;;;;;5052245;28;20484;-66
2023/10/05 02:07:11;;;;;;;1.83;0.80;;;13.40;99.90;;;;;;5048277;28;20531;-67
2023/10/05 02:09:38;;;;;;;1.85;0.50;;;13.40;99.90;;;;;;5038509;28;20045;-67
2023/10/05 02:12:06;;;;;;;0.10;0.10;;;13.30;99.90;;;;;;5043689;28;20401;-67
2023/10/05 02:14:41;;;;;;;0.30;0.30;;;13.30;99.90;;;;;;5042701;28;20070;-67
2023/10/05 02:17:13;;;;;;;0.10;0.10;;;13.30;99.90;;;;;;5068382;28;20124;-67
2023/10/05 02:19:41;;;;;;;0.52;0.25;;;13.30;99.90;;;;;;5046331;28;20448;-67
2023/10/05 02:22:12;;;;;;;0.13;0.13;;;13.30;99.90;;;;;;5046088;28;20051;-68
2023/10/05 02:24:40;;;;;;;0.10;0.10;;;13.30;99.90;;;;;;5048653;28;20048;-67
2023/10/05 02:27:14;;;;;;;0.22;0.22;;;13.30;99.90;;;;;;5044203;28;20100;-66
2023/10/05 02:29:41;;;;;;;0.30;0.30;;;13.30;99.90;;;;;;5042699;28;20060;-68
2023/10/05 02:32:10;;;;;;;0.10;0.10;;;13.20;99.90;;;;;;5046879;28;20472;-67
2023/10/05 02:34:44;;;;;;;0.17;0.17;;;13.20;99.90;;;;;;5066729;28;20128;-67
2023/10/05 02:37:11;;;;;;;0.30;0.20;;;13.20;99.90;;;;;;5045619;28;20041;-67
2023/10/05 02:39:41;;;;;;;0.10;0.10;;;13.20;99.90;;;;;;5038642;28;20044;-67
2023/10/05 02:42:14;;;;;;;0.08;0.08;;;13.20;99.90;;;;;;5049195;28;20037;-67
2023/10/05 02:44:42;;;;;;;0.10;0.10;;;13.20;99.90;;;;;;5052059;28;20033;-67
2023/10/05 02:47:10;;;;;;;1.67;1.08;;;13.20;99.90;;;;;;5050204;28;20040;-67
2023/10/05 02:49:47;;;;;;;0.90;0.38;;;13.20;99.90;;;;;;5051127;28;20068;-67
2023/10/05 02:52:16;;;;;;;0.32;0.32;;;13.20;99.90;;;;;;5067537;28;20044;-67
2023/10/05 02:54:47;;;;;;;0.65;0.65;;;13.20;99.90;;;;;;5049716;28;20071;-68
2023/10/05 02:57:16;;;;;;;0.20;0.20;;;13.20;99.90;;;;;;5060600;28;20407;-67
2023/10/05 02:59:44;;;;;;;1.30;0.20;;;13.20;99.90;;;;;;5043666;28;20295;-68
2023/10/05 03:02:14;;;;;;;0.73;0.52;;;13.10;99.90;;;;;;5048229;28;20442;-68
2023/10/05 03:04:47;;;;;;;1.40;0.25;;;13.10;99.90;;;;;;5048581;28;20114;-68
2023/10/05 03:07:17;;;;;;;0.10;0.10;;;13.10;99.90;;;;;;5070420;28;20422;-67
2023/10/05 03:09:46;;;;;;;0.20;0.20;;;13.10;99.90;;;;;;5048509;28;20427;-67
2023/10/05 03:12:12;;;;;;;0.47;0.22;;;13.20;99.90;;;;;;5036406;28;20135;-67
2023/10/05 03:14:40;;;;;;;0.10;0.10;;;13.10;99.90;;;;;;5048770;28;20390;-67
2023/10/05 03:17:13;;;;;;;0.63;0.35;;;13.20;99.90;;;;;;5065570;28;20414;-68
2023/10/05 03:19:39;;;;;;;0.25;0.25;;;13.20;99.90;;;;;;5048449;28;20055;-68
2023/10/05 03:22:07;;;;;;;0.52;0.45;;;13.20;99.90;;;;;;5043872;28;20404;-68
2023/10/05 03:24:33;;;;;;;0.93;0.22;;;13.20;99.90;;;;;;5061370;28;20384;-67
2023/10/05 03:27:03;;;;;;;0.52;0.30;;;13.20;99.90;;;;;;5038064;28;20048;-69
2023/10/05 03:29:35;;;;;;;0.30;0.28;;;13.20;99.90;;;;;;5059693;28;20044;-68
2023/10/05 03:32:19;;;;;;;0.50;0.50;;;13.30;99.90;;;;;;5065533;28;20048;-68
2023/10/05 03:34:48;;;;;;;0.20;0.20;;;13.30;99.90;;;;;;5040194;28;20032;-68
2023/10/05 03:37:13;;;;;;;1.08;0.70;;;13.30;99.90;;;;;;5036465;28;20081;-68
2023/10/05 03:39:52;;;;;;;0.05;0.05;;;13.20;99.90;;;;;;5039975;28;20522;-68
2023/10/05 03:42:21;;;;;;;0.10;0.10;;;13.20;99.90;;;;;;5038865;28;20055;-68
2023/10/05 03:45:11;;;;;;;0.47;0.47;;;13.20;99.90;;;;;;5041165;28;20037;-67
2023/10/05 03:47:37;;;;;;;1.15;0.35;;;13.20;99.90;;;;;;5037034;28;20090;-67
2023/10/05 03:50:04;;;;;;;0.13;0.13;;;13.20;99.90;;;;;;5037827;28;20035;-68
2023/10/05 03:52:30;;;;;;;0.32;0.10;;;13.10;99.90;;;;;;5034636;28;20391;-68
2023/10/05 03:55:09;;;;;;;0.10;0.10;;;13.10;99.90;;;;;;5071509;28;20037;-68
2023/10/05 03:57:35;;;;;;;0.40;0.40;;;13.10;99.90;;;;;;5036694;28;20045;-67
2023/10/05 04:00:18;;;;;;;0.00;0.00;;;13.10;99.90;;;;;;5070197;28;20052;-67
2023/10/05 04:02:44;;;;;;;1.95;0.95;;;13.10;99.90;;;;;;5071730;28;20064;-67
2023/10/05 04:05:11;;;;;;;0.10;0.10;;;13.00;99.90;;;;;;5054469;28;20488;-68
2023/10/05 04:07:37;;;;;;;0.20;0.20;;;13.00;99.90;;;;;;5068285;28;20047;-68
2023/10/05 04:10:05;;;;;;;0.55;0.55;;;13.00;99.90;;;;;;5062171;28;20392;-68
2023/10/05 04:12:32;;;;;;;0.15;0.15;;;13.00;99.90;;;;;;5051113;28;20036;-68
2023/10/05 04:15:00;;;;;;;0.50;0.50;;;13.00;99.90;;;;;;5074362;28;20396;-68
2023/10/05 04:17:26;;;;;;;0.20;0.20;;;13.00;99.90;;;;;;5052641;28;20043;-69
2023/10/05 04:19:52;;;;;;;0.20;0.20;;;13.00;99.90;;;;;;5048649;28;20045;-69
2023/10/05 04:22:18;;;;;;;0.25;0.25;;;13.00;99.90;;;;;;5058966;28;20048;-68
2023/10/05 04:24:45;;;;;;;0.00;0.00;;;13.00;99.90;;;;;;5050034;28;20098;-68
2023/10/05 04:27:18;;;;;;;0.10;0.10;;;12.90;99.90;;;;;;5049491;28;20052;-69
2023/10/05 04:29:43;;;;;;;;;;;12.90;99.90;;;;;;5048890;28;20122;-69
2023/10/05 04:32:12;;;;;;;0.10;0.10;;;12.90;99.90;;;;;;5059551;28;19920;-69
2023/10/05 04:34:38;;;;;;;0.10;0.10;;;12.90;99.90;;;;;;5052655;28;20462;-69
2023/10/05 04:37:03;;;;;;;0.20;0.20;;;12.90;99.90;;;;;;5050213;28;20048;-69
2023/10/05 04:39:30;;;;;;;0.28;0.28;;;12.90;99.90;;;;;;5048306;28;20041;-69
2023/10/05 04:41:58;;;;;;;0.85;0.38;;;12.90;99.90;;;;;;5047012;28;20049;-69
2023/10/05 04:44:24;;;;;;;0.55;0.55;;;12.90;99.90;;;;;;5054077;28;20125;-68
2023/10/05 04:46:51;;;;;;;0.10;0.10;;;12.90;99.90;;;;;;5051880;28;20182;-69
2023/10/05 04:49:18;;;;;;;0.57;0.43;;;12.90;99.90;;;;;;5065387;28;20051;-67
2023/10/05 04:51:44;;;;;;;0.55;0.32;;;12.90;99.90;;;;;;5048574;28;20165;-67
2023/10/05 04:54:11;;;;;;;0.30;0.30;;;13.00;99.90;;;;;;5048822;28;20528;-68
2023/10/05 05:04:51;;;;;;;0.45;0.45;;;13.00;99.90;;;;;;5058296;28;20086;-68
2023/10/05 05:07:13;;;;;;;1.85;0.73;;;13.00;99.90;;;;;;5045785;28;20471;-67
2023/10/05 05:09:41;;;;;;;0.65;0.60;;;13.00;99.90;;;;;;5052389;28;20059;-68
2023/10/05 05:12:09;;;;;;;0.85;0.20;;;13.00;99.90;;;;;;5069834;28;20037;-67
2023/10/05 05:14:43;;;;;;;0.10;0.10;;;13.00;99.90;;;;;;5057146;28;20032;-68
2023/10/05 05:17:13;;;;;;;0.20;0.20;;;13.10;99.90;;;;;;5049983;28;20427;-68
2023/10/05 05:19:39;;;;;;;0.47;0.30;;;13.10;99.90;;;;;;5050709;28;20487;-68
2023/10/05 05:22:05;;;;;;;0.10;0.10;;;13.10;99.90;;;;;;5052220;28;20758;-67
2023/10/05 05:24:35;;;;;;;0.30;0.22;;;13.10;99.90;;;;;;5049334;28;20036;-67
2023/10/05 05:27:11;;;;;;;0.20;0.20;;;13.00;99.90;;;;;;5045459;28;20040;-68
2023/10/05 05:29:38;;;;;;;0.13;0.13;;;13.10;99.90;;;;;;5072189;28;20044;-67
2023/10/05 05:32:10;;;;;;;0.10;0.10;;;13.00;99.90;;;;;;5047387;28;20117;-68
2023/10/05 05:34:36;;;;;;;0.13;0.13;;;13.00;99.90;;;;;;5042544;28;20055;-67
2023/10/05 05:37:01;;;;;;;0.65;0.28;;;13.10;99.90;;;;;;5050528;28;20129;-67
2023/10/05 05:39:27;;;;;;;0.88;0.88;;;13.10;99.90;;;;;;5051771;28;20075;-67
2023/10/05 05:41:59;;;;;;;0.70;0.70;;;13.10;99.90;;;;;;5043713;28;20045;-66
2023/10/05 05:44:26;;;;;;;0.28;0.28;;;13.10;99.90;;;;;;5044341;28;20041;-67
2023/10/05 05:46:55;;;;;;;0.00;0.00;;;13.10;99.90;;;;;;5047041;28;20064;-68
2023/10/05 05:49:21;;;;;;;1.90;1.20;;;13.20;99.90;;;;;;5066948;28;20056;-67
2023/10/05 05:51:47;;;;;;;1.30;0.40;;;13.20;99.90;;;;;;5076020;28;20064;-67
2023/10/05 05:54:13;;;;;;;0.28;0.28;;;13.20;99.90;;;;;;5046621;28;20492;-67
2023/10/05 05:56:42;;;;;;;0.10;0.10;;;13.20;99.90;;;;;;5047636;28;20036;-67
2023/10/05 05:59:08;;;;;;;0.88;0.43;;;13.20;99.90;;;;;;5053746;28;20063;-67
2023/10/05 06:01:35;;;;;;;0.10;0.10;;;13.20;99.90;;;;;;5043035;28;20048;-67
2023/10/05 06:04:01;;;;;;;0.32;0.17;;;13.30;99.90;;;;;;5046216;28;20123;-68
2023/10/05 06:06:27;;;;;;;1.35;0.73;;;13.30;99.90;;;;;;5060723;28;20518;-67
2023/10/05 06:08:52;;;;;;;0.28;0.28;;;13.30;99.90;;;;;;5047671;28;20123;-67
2023/10/05 06:11:19;;;;;;;0.10;0.10;;;13.30;99.90;;;;;;5055047;28;20425;-67
2023/10/05 06:13:45;;;;;;;0.10;0.10;;;13.30;99.90;;;;;;5040569;28;20036;-68
2023/10/05 06:16:13;;;;;;;2.65;0.65;;;13.30;99.90;;;;;;5045554;28;20070;-66
2023/10/05 06:18:39;;;;;;;0.38;0.38;;;13.30;99.90;;;;;;5036781;28;20068;-68
2023/10/05 06:21:05;;;;;;;0.10;0.10;;;13.30;99.90;;;;;;5061927;28;20083;-67
2023/10/05 06:23:33;;;;;;;0.40;0.40;;;13.40;99.90;;;;;;5046804;28;20045;-68
2023/10/05 06:25:59;;;;;;;0.80;0.77;;;13.40;99.90;;;;;;5050892;28;20059;-67
2023/10/05 06:28:26;;;;;;;1.10;0.95;;;13.40;99.90;;;;;;5045684;28;20044;-68
2023/10/05 06:30:52;;;;;;;0.20;0.13;;;13.40;99.90;;;;;;5066920;28;20158;-67
2023/10/05 06:33:22;;;;;;;0.57;0.17;;;13.50;99.90;;;;;;5036863;28;20052;-67
2023/10/05 06:35:47;;;;;;;0.22;0.10;;;13.50;99.90;;;;;;5042865;28;20044;-67
2023/10/05 06:38:14;;;;;;;0.25;0.25;;;13.50;99.90;;;;;;5043790;28;20059;-68
2023/10/05 06:40:39;;;;;;;0.55;0.22;;;13.50;99.90;;;;;;5045951;28;20056;-67
2023/10/05 06:43:08;;;;;;;0.75;0.47;;;13.50;99.90;;;;;;5039070;28;20070;-67
2023/10/05 06:45:35;;;;;;;0.63;0.38;;;13.50;99.90;;;;;;5047907;28;20047;-67
2023/10/05 06:48:03;;;;;;;1.55;1.45;;;13.50;99.90;;;;;;5056981;28;20494;-67
2023/10/05 06:50:29;;;;;;;0.25;0.17;;;13.50;99.90;;;;;;5045852;28;20045;-67
2023/10/05 06:52:55;;;;;;;0.70;0.43;;;13.60;99.90;;;;;;5046885;28;20043;-68
2023/10/05 06:55:23;;;;;;;0.22;0.22;;;13.60;99.90;;;;;;5053020;28;20108;-69
2023/10/05 06:57:52;;;;;;;1.02;0.30;;;13.60;99.90;;;;;;5056141;28;20475;-66
2023/10/05 07:00:22;;;;;;;0.10;0.10;;;13.70;99.90;;;;;;5038691;28;20070;-66
2023/10/05 07:02:49;;;;;;;0.98;0.98;;;13.70;99.90;;;;;;5045061;28;20037;-67
2023/10/05 07:05:15;;;;;;;1.38;0.65;;;13.70;99.90;;;;;;5035161;28;20033;-68
2023/10/05 07:07:41;;;;;;;0.52;0.52;;;13.70;99.90;;;;;;5024564;28;20044;-68
2023/10/05 07:10:12;;;;;;;0.30;0.30;;;13.70;99.90;;;;;;5043047;28;20388;-69
2023/10/05 07:12:46;;;;;;;0.70;0.20;;;13.70;99.90;;;;;;5041969;28;20044;-66
2023/10/05 07:15:21;;;;;;;0.28;0.22;;;13.70;99.90;;;;;;5051559;28;20040;-67
2023/10/05 07:17:51;;;;;;;1.30;1.13;;;13.80;99.90;;;;;;5043352;28;20056;-66
2023/10/05 07:20:20;;;;;;;0.25;0.25;;;13.80;99.90;;;;;;5033072;28;20468;-67
2023/10/05 07:22:47;;;;;;;0.20;0.20;;;13.80;99.90;;;;;;5043636;28;20039;-68
2023/10/05 07:25:19;;;;;;;1.05;0.40;;;13.90;99.90;;;;;;5040536;28;20385;-67
2023/10/05 07:27:45;;;;;;;1.65;0.43;;;13.90;99.90;;;;;;5066635;28;20032;-68
2023/10/05 07:30:11;;;;;;;1.02;0.38;;;14.00;99.90;;;;;;5042127;28;20101;-67
2023/10/05 07:32:37;;;;;;;0.10;0.10;;;14.00;99.90;;;;;;5045252;28;20048;-67
2023/10/05 07:35:07;;;;;;;3.53;0.63;;;14.00;99.90;;;;;;5034354;28;20483;-67
2023/10/05 07:37:35;;;;;;;0.65;0.65;;;14.00;99.90;;;;;;5043601;28;20055;-65
2023/10/05 07:40:03;;;;;;;1.75;0.60;;;14.10;99.90;;;;;;5044417;28;20088;-69
2023/10/05 07:42:29;;;;;;;0.65;0.65;;;14.20;99.90;;;;;;5059952;28;20127;-67
2023/10/05 07:44:54;;;;;;;0.85;0.85;;;14.20;99.90;;;;;;5050189;28;20119;-66
2023/10/05 07:47:21;;;;;;;0.38;0.38;;;14.20;99.90;;;;;;5047999;28;20453;-68
2023/10/05 07:49:47;;;;;;;0.20;0.20;;;14.30;99.90;;;;;;5049891;28;20460;-68
2023/10/05 07:52:14;;;;;;;2.50;2.22;;;14.40;99.90;;;;;;5050161;28;20094;-68
2023/10/05 07:54:40;;;;;;;0.85;0.60;;;14.40;99.90;;;;;;5050163;28;20049;-67
2023/10/05 07:57:10;;;;;;;0.95;0.95;;;14.50;99.90;;;;;;5054127;28;20033;-69
2023/10/05 07:59:42;;;;;;;0.30;0.30;;;14.50;99.90;;;;;;5048439;28;20440;-69
2023/10/05 08:02:10;;;;;;;;;;;14.60;99.90;;;;;;5050028;28;20055;-68
2023/10/05 08:04:36;;;;;;;1.83;1.15;;;14.60;99.90;;;;;;5045590;28;19927;-69
2023/10/05 08:07:02;;;;;;;3.78;1.33;;;14.60;99.90;;;;;;5044843;28;20052;-68
2023/10/05 08:09:29;;;;;;;1.02;0.80;;;14.70;99.90;;;;;;5048475;28;20131;-68
2023/10/05 08:11:57;;;;;;;1.58;1.45;;;14.70;99.90;;;;;;5044241;28;20047;-68
2023/10/05 08:14:27;;;;;;;0.35;0.35;;;14.80;99.90;;;;;;5076269;28;20140;-69
2023/10/05 08:16:55;;;;;;;0.30;0.30;;;14.80;99.90;;;;;;5078889;28;20037;-67
2023/10/05 08:19:21;;;;;;;2.05;1.15;;;14.90;99.90;;;;;;5057976;28;20813;-68
2023/10/05 08:21:47;;;;;;;1.27;0.80;;;15.00;99.90;;;;;;5046630;28;20048;-68
2023/10/05 08:24:17;;;;;;;1.05;0.65;;;15.00;99.90;;;;;;5058104;28;20044;-68
2023/10/05 08:26:43;;;;;;;2.40;0.73;;;15.10;99.90;;;;;;5048447;28;20047;-68
2023/10/05 08:29:09;;;;;;;0.43;0.40;;;15.10;99.90;;;;;;5044172;28;20033;-67
2023/10/05 08:31:35;;;;;;;2.10;0.75;;;15.20;99.90;;;;;;5041232;28;20506;-68
2023/10/05 08:34:01;;;;;;;0.70;0.70;;;15.30;99.90;;;;;;5054143;28;20457;-68
2023/10/05 08:36:26;;;;;;;0.43;0.43;;;15.30;99.90;;;;;;5047477;28;20033;-69
2023/10/05 08:38:55;;;;;;;0.10;0.10;;;15.30;99.90;;;;;;5059268;28;20050;-68
2023/10/05 08:41:34;;;;;;;0.15;0.15;;;15.30;99.90;;;;;;5053658;28;20063;-68
2023/10/05 08:44:26;;;;;;;0.95;0.50;;;15.40;99.90;;;;;;5046829;28;20044;-69
2023/10/05 08:46:49;;;;;;;0.30;0.20;;;15.40;99.90;;;;;;5086200;28;20048;-69
2023/10/05 08:49:15;;;;;;;0.90;0.47;;;15.40;99.90;;;;;;5054540;28;20032;-68
2023/10/05 08:51:41;;;;;;;0.68;0.68;;;15.40;99.90;;;;;;5075383;28;20426;-69
2023/10/05 08:54:11;;;;;;;0.28;0.28;;;15.40;99.90;;;;;;5045526;28;20121;-68
2023/10/05 08:56:42;;;;;;;0.28;0.28;;;15.40;99.90;;;;;;5044474;28;20051;-68
2023/10/05 08:59:13;;;;;;;7.38;0.95;;;15.50;99.90;;;;;;5050109;28;20063;-68
2023/10/05 09:01:42;;;;;;;1.25;0.65;;;15.70;99.90;;;;;;5057303;28;20076;-69
2023/10/05 09:04:12;;;;;;;0.85;0.68;;;15.80;99.90;;;;;;5061178;28;20048;-68
2023/10/05 09:06:52;;;;;;;1.02;0.85;;;15.90;99.90;;;;;;5057455;28;20080;-69
2023/10/05 09:09:39;;;;;;;0.60;0.60;;;16.00;99.90;;;;;;5046695;28;20099;-68
2023/10/05 09:12:19;;;;;;;0.93;0.80;;;16.10;99.90;;;;;;5046693;28;20491;-69
2023/10/05 09:14:46;;;;;;;0.32;0.32;;;16.20;99.90;;;;;;5047061;28;20040;-68
2023/10/05 09:17:15;;;;;;;0.20;0.20;;;16.30;99.90;;;;;;5056060;28;20041;-71
2023/10/05 09:19:43;;;;;;;0.77;0.35;;;16.30;99.90;;;;;;5055455;28;20036;-70
2023/10/05 09:24:34;;;;;;;0.73;0.73;;;16.40;99.90;;;;;;5041161;28;20106;-69
2023/10/05 09:27:14;;;;;;;0.65;0.60;;;16.30;99.90;;;;;;5036337;28;20041;-67
2023/10/05 09:29:41;;;;;;;0.95;0.60;;;16.30;99.90;;;;;;5048417;28;20045;-67
2023/10/05 09:32:30;;;;;;;0.40;0.40;;;16.30;99.90;;;;;;5049919;28;20071;-69
2023/10/05 09:34:57;;;;;;;1.90;0.77;;;16.30;99.90;;;;;;5075401;28;20816;-68
2023/10/05 09:37:26;;;;;;;0.25;0.20;;;16.20;99.90;;;;;;5038641;28;20044;-67
2023/10/05 09:39:59;;;;;;;0.22;0.22;;;16.10;99.90;;;;;;5047406;28;20751;-67
2023/10/05 09:42:25;;;;;;;0.47;0.45;;;16.00;99.90;;;;;;5039894;28;20041;-67
2023/10/05 09:44:51;;;;;;;6.47;2.70;;;16.00;99.90;;;;;;5049582;28;20037;-68
2023/10/05 09:47:25;;;;;;;0.73;0.32;;;16.00;99.90;;;;;;5057082;28;20051;-68
2023/10/05 09:49:53;;;;;;;0.52;0.50;;;15.90;99.90;;;;;;5042393;28;20144;-66
2023/10/05 09:52:22;;;;;;;0.30;0.30;;;15.80;99.90;;;;;;5039342;28;20067;-66
2023/10/05 09:54:49;;;;;;;0.38;0.30;;;15.80;99.90;;;;;;5043028;28;20577;-66
2023/10/05 09:57:17;;;;;;;0.70;0.70;;;15.70;99.90;;;;;;5064424;28;20059;-65
2023/10/05 09:59:45;;;;;;;0.75;0.75;;;15.70;99.90;;;;;;5079029;28;20048;-68
2023/10/05 10:02:17;;;;;;;0.45;0.40;;;15.70;99.90;;;;;;5045632;28;20123;-67
2023/10/05 10:04:46;;;;;;;1.75;1.63;;;15.70;99.90;;;;;;5052547;28;20052;-68
2023/10/05 10:07:22;;;;;;;0.28;0.28;;;15.80;99.90;;;;;;5060385;28;20121;-68
2023/10/05 10:09:53;;;;;;;1.25;1.15;;;15.90;99.90;;;;;;5048951;28;20491;-67
2023/10/05 10:12:31;;;;;;;0.65;0.50;;;16.00;99.90;;;;;;5046533;28;20082;-69
2023/10/05 10:14:58;;;;;;;0.43;0.32;;;16.00;99.90;;;;;;5035872;28;20040;-68
2023/10/05 10:17:27;;;;;;;1.15;1.08;;;16.10;99.90;;;;;;5051514;28;20394;-68
2023/10/05 10:20:17;;;;;;;6.13;2.45;;;16.10;99.90;;;;;;5066379;28;20429;-69
2023/10/05 10:23:00;;;;;;;0.30;0.30;;;16.20;99.90;;;;;;5050719;28;20044;-66
2023/10/05 10:25:30;;;;;;;0.30;0.30;;;16.30;99.90;;;;;;5053655;28;20048;-69
2023/10/05 10:28:15;;;;;;;7.43;1.95;;;16.40;99.90;;;;;;5038917;28;20044;-68
2023/10/05 10:30:47;;;;;;;1.60;0.80;;;16.50;99.90;;;;;;5029466;28;20086;-66
2023/10/05 10:33:42;;;;;;;0.98;0.85;;;16.50;99.90;;;;;;5040141;28;20052;-69
2023/10/05 10:36:18;;;;;;;0.52;0.52;;;16.60;99.90;;;;;;5061173;28;20066;-68
2023/10/05 10:38:52;;;;;;;1.80;0.63;;;16.80;99.90;;;;;;5050640;28;20459;-70
2023/10/05 10:41:21;;;;;;;0.70;0.60;;;16.80;99.90;;;;;;5046626;28;20075;-68
2023/10/05 10:43:55;;;;;;;0.55;0.55;;;17.00;99.90;;;;;;5025250;28;20036;-67
2023/10/05 10:46:29;;;;;;;2.30;1.80;;;17.10;99.90;;;;;;5039613;28;20047;-68
2023/10/05 10:48:58;;;;;;;0.80;0.80;;;17.30;99.90;;;;;;5045820;28;20132;-67
2023/10/05 10:51:27;;;;;;;2.83;0.60;;;17.30;99.90;;;;;;5043653;28;20115;-69
2023/10/05 10:53:57;;;;;;;0.57;0.57;;;17.30;99.90;;;;;;5034705;28;20132;-68
2023/10/05 10:56:30;;;;;;;3.60;1.77;;;17.30;99.90;;;;;;5051057;28;20090;-69
2023/10/05 10:58:57;;;;;;;1.08;0.63;;;17.30;99.90;;;;;;5042644;28;20500;-69
2023/10/05 11:01:28;;;;;;;0.70;0.70;;;17.20;99.90;;;;;;5041912;28;20181;-69
2023/10/05 11:04:00;;;;;;;0.50;0.50;;;17.20;99.90;;;;;;5037485;28;20433;-69
2023/10/05 11:06:28;;;;;;;3.10;0.97;;;17.30;99.90;;;;;;5040917;28;20044;-68
2023/10/05 11:08:59;;;;;;;0.20;0.20;;;17.30;99.90;;;;;;5042643;28;20039;-70
2023/10/05 11:11:25;;;;;;;16.58;0.73;;;17.30;99.90;;;;;;5059403;28;20116;-70
2023/10/05 11:13:55;;;;;;;0.45;0.45;;;17.40;99.90;;;;;;5066259;28;20686;-69
2023/10/05 11:16:21;;;;;;;0.10;0.10;;;17.40;99.90;;;;;;5040168;28;20040;-69
2023/10/05 11:19:00;;;;;;;0.20;0.20;;;17.50;99.90;;;;;;5064388;28;20094;-69
2023/10/05 11:21:26;;;;;;;0.40;0.40;;;17.60;99.90;;;;;;5049737;28;20119;-71
2023/10/05 11:23:57;;;;;;;0.17;0.17;;;17.70;99.90;;;;;;5040151;28;20132;-69
2023/10/05 11:26:33;;;;;;;8.15;0.63;;;17.80;99.90;;;;;;5068553;28;20040;-70
2023/10/05 11:29:07;;;;;;;0.43;0.20;;;17.90;99.90;;;;;;5049866;28;20044;-71
2023/10/05 11:31:38;;;;;;;0.10;0.10;;;18.00;99.90;;;;;;5045515;28;20083;-69
2023/10/05 11:34:10;;;;;;;0.60;0.60;;;18.00;99.90;;;;;;5078369;28;20037;-69
2023/10/05 11:36:42;;;;;;;0.25;0.25;;;18.10;99.90;;;;;;5039826;28;20053;-70
2023/10/05 11:39:21;;;;;;;0.90;0.47;;;18.10;99.90;;;;;;5042207;28;20037;-70
2023/10/05 11:41:48;;;;;;;0.70;0.70;;;17.90;99.90;;;;;;5070049;28;20086;-70
2023/10/05 11:44:23;;;;;;;0.20;0.13;;;17.80;99.90;;;;;;5041163;28;20060;-70
2023/10/05 11:46:53;;;;;;;0.73;0.70;;;17.70;99.90;;;;;;5045433;28;20108;-69
2023/10/05 11:49:20;;;;;;;0.20;0.20;;;17.80;99.90;;;;;;5043915;28;20108;-69
2023/10/05 11:51:59;;;;;;;0.60;0.60;;;17.90;99.90;;;;;;5044663;28;20039;-69
2023/10/05 11:54:29;;;;;;;4.75;1.27;;;18.10;99.90;;;;;;5042399;28;20452;-70
2023/10/05 11:56:55;;;;;;;0.20;0.20;;;18.20;99.90;;;;;;5048776;28;20055;-69
2023/10/05 11:59:36;;;;;;;0.30;0.30;;;18.20;99.90;;;;;;5057022;28;20484;-68
2023/10/05 12:02:08;;;;;;;1.02;0.63;;;18.10;99.90;;;;;;5049167;28;20044;-67
2023/10/05 12:04:39;;;;;;;0.20;0.20;;;18.10;99.90;;;;;;5032993;28;20049;-71
2023/10/05 12:07:11;;;;;;;0.52;0.52;;;18.10;99.90;;;;;;5031905;28;20335;-71
2023/10/05 12:09:43;;;;;;;6.25;0.75;;;18.30;99.90;;;;;;5032660;28;20139;-70
2023/10/05 12:12:18;;;;;;;0.20;0.20;;;18.40;99.90;;;;;;5067577;28;20075;-68
2023/10/05 12:14:45;;;;;;;1.45;1.33;;;18.50;99.90;;;;;;5051235;28;20177;-68
2023/10/05 12:17:10;;;;;;;8.65;1.15;;;18.50;99.90;;;;;;5037300;28;20071;-70
2023/10/05 12:19:37;;;;;;;23.15;1.85;;;18.50;99.90;;;;;;5058571;28;20088;-70
2023/10/05 12:22:13;;;;;;;0.65;0.65;;;18.50;99.90;;;;;;5073161;28;20044;-70
2023/10/05 12:24:39;;;;;;;0.20;0.20;;;18.50;99.90;;;;;;5073762;28;20102;-70
2023/10/05 12:27:18;;;;;;;0.10;0.10;;;18.50;99.90;;;;;;5065111;28;20044;-69
2023/10/05 12:29:45;;;;;;;0.45;0.45;;;18.50;99.90;;;;;;5038779;28;20072;-69
2023/10/05 12:32:13;;;;;;;0.10;0.10;;;18.50;99.90;;;;;;5030221;28;20098;-69
2023/10/05 12:34:42;;;;;;;6.43;0.77;;;18.60;99.90;;;;;;5042373;28;20052;-70
2023/10/05 12:37:08;;;;;;;1.20;0.25;;;18.50;99.90;;;;;;5053924;28;20044;-70
2023/10/05 12:39:33;;;;;;;1.25;0.75;;;18.40;99.90;;;;;;5042070;28;20052;-70
2023/10/05 12:42:00;;;;;;;0.50;0.47;;;18.30;99.90;;;;;;5039768;28;20064;-70
2023/10/05 12:44:27;;;;;;;0.20;0.20;;;18.20;99.90;;;;;;5048031;28;20576;-70
2023/10/05 12:46:53;;;;;;;0.15;0.15;;;18.10;99.90;;;;;;5055061;28;20048;-70
2023/10/05 12:49:20;;;;;;;0.00;0.00;;;18.00;99.90;;;;;;5049377;28;20044;-70
2023/10/05 12:51:47;;;;;;;6.68;0.35;;;18.00;99.90;;;;;;5074334;28;20039;-70
2023/10/05 12:54:19;;;;;;;0.20;0.20;;;18.00;99.90;;;;;;5053979;28;20080;-69
2023/10/05 12:56:49;;;;;;;0.10;0.10;;;18.00;99.90;;;;;;5043818;28;20396;-71
2023/10/05 12:59:15;;;;;;;0.40;0.40;;;17.90;99.90;;;;;;5041027;28;20082;-72
2023/10/05 13:01:41;;;;;;;1.83;0.60;;;17.90;99.90;;;;;;5047216;28;20048;-71
2023/10/05 13:04:17;;;;;;;0.45;0.45;;;17.80;99.90;;;;;;5034248;28;20045;-69
2023/10/05 13:06:45;;;;;;;1.70;0.55;;;17.90;99.90;;;;;;5043169;28;20033;-70
2023/10/05 13:09:11;;;;;;;0.35;0.35;;;18.10;99.90;;;;;;5042676;28;20492;-71
2023/10/05 13:11:47;;;;;;;0.82;0.40;;;18.20;99.90;;;;;;5050159;28;20414;-71
2023/10/05 13:14:14;;;;;;;0.13;0.13;;;18.10;99.90;;;;;;5050479;28;20045;-70
2023/10/05 13:16:54;;;;;;;2.20;0.77;;;18.10;99.90;;;;;;5084978;28;20055;-72